• Join FlightAware (Why Join?)
  • Login
  • US Flag 
05:01PM EDT


 

Airport Tracker/Info


-or-


 

Live Flight TrackerFlight Track Log ✈ SWA1718 ✈ 22-Apr-2013 ✈ KMDW - KBUF

Flight Track Log - Related Links

Times and Time Zones

All times are in EDT time to prevent confusion due to time zone crossing. See the SWA1718 flight status page for this flight to view local times or setup timezone preferences in your user account.

Time Position Orientation Groundspeed Altitude Reporting Facility
EDT Latitude Longitude Course Direction KTS MPH feet Rate Location/Type
10:16PM 41.8169 -87.5814 63° Northeast 235 270 5,900  Level Chicago Center
10:17PM 41.8253 -87.4553 85° East 282 325 9,300 2,580 Climbing Chicago Center
10:18PM 41.8217 -87.3339 92° East 327 376 11,200 2,220 Climbing Chicago Center
10:19PM 41.8319 -87.1989 84° East 361 415 13,900 2,460 Climbing Chicago Center
10:20PM 41.8417 -87.0567 85° East 382 440 16,300 2,280 Climbing Chicago Center
10:21PM 41.8511 -86.9106 85° East 394 453 18,600 2,040 Climbing Chicago Center
10:22PM 41.8611 -86.7581 85° East 411 473 20,500 2,040 Climbing Chicago Center
10:23PM 41.8731 -86.5794 85° East 421 484 22,800 1,500 Climbing Chicago Center
10:24PM 41.8828 -86.4178 85° East 433 498 23,600 1,140 Climbing Chicago Center
10:25PM 41.8936 -86.2586 85° East 431 496 25,200 1,440 Climbing Chicago Center
10:26PM 41.9031 -86.0922 86° East 446 513 26,600 1,500 Climbing Chicago Center
10:27PM 41.9133 -85.9217 85° East 457 526 28,300 1,560 Climbing Chicago Center
10:28PM 41.9228 -85.7514 86° East 457 526 29,800 1,560 Climbing Chicago Center
10:29PM 41.9322 -85.5769 86° East 463 533 31,600 1,560 Climbing Chicago Center
10:30PM 41.9414 -85.4092 86° East 453 521 33,100 1,080 Climbing Chicago Center
10:31PM 41.9517 -85.2744 84° East 461 531 33,600 1,020 Climbing Cleveland Center
10:32PM 41.9542 -85.1042 89° East 461 531 35,000 660 Climbing Cleveland Center
10:33PM 41.9525 -84.9364 91° East 461 531 35,000  Level Cleveland Center
10:34PM 41.9503 -84.7689 91° East 461 531 35,000  Level Cleveland Center
10:35PM 41.9461 -84.5925 92° East 450 518 35,000  Level Cleveland Center
10:36PM 41.9478 -84.4250 89° East 445 512 35,000  Level Cleveland Center
10:37PM 41.9500 -84.2939 89° East 445 512 35,000  Level Cleveland Center
10:38PM 41.9417 -84.0897 93° East 445 512 35,000  Level Cleveland Center
10:39PM 41.9383 -83.9247 92° East 445 512 35,000  Level Cleveland Center
10:40PM 41.9369 -83.7569 91° East 445 512 35,000  Level Cleveland Center
10:41PM 41.9331 -83.5867 92° East 445 512 35,000 -240 Level Cleveland Center
10:42PM 41.9328 -83.4358 90° East 452 520 34,600 -600 Descending Cleveland Center
10:43PM 41.9328 -83.2656 90° East 452 520 33,800 -840 Descending Cleveland Center
10:44PM 41.9306 -83.0839 91° East 452 520 33,000 -420 Descending Cleveland Center
10:45PM 41.9300 -82.9192 90° East 442 509 33,000 -780 Level Cleveland Center
10:46PM 41.9289 -82.7544 90° East 442 509 31,500 -1,620 Descending Cleveland Center
10:47PM 41.9547 -82.5936 78° East 442 509 29,800 -1,680 Descending Cleveland Center
10:48PM 41.9825 -82.4322 77° East 442 509 28,200 -1,440 Descending Cleveland Center
10:49PM 42.0122 -82.2711 76° East 442 509 27,000 -600 Descending Cleveland Center
10:50PM 42.0394 -82.1125 77° East 447 514 27,000  Level Cleveland Center
10:51PM 42.0664 -81.9536 77° East 442 509 27,000  Level Cleveland Center
10:52PM 42.0953 -81.7919 76° East 436 502 27,000  Level Cleveland Center
10:53PM 42.1219 -81.6331 77° East 436 502 27,000  Level Cleveland Center
10:54PM 42.1483 -81.4736 77° East 430 495 27,000  Level Cleveland Center
10:55PM 42.1722 -81.3311 77° East 435 501 27,000  Level Cleveland Center
10:56PM 42.1981 -81.1717 78° East 430 495 27,000  Level Cleveland Center
10:57PM 42.2239 -81.0067 78° East 435 501 27,000  Level Cleveland Center
10:58PM 42.2639 -80.8525 71° East 429 494 27,000  Level Cleveland Center
10:59PM 42.3122 -80.7011 67° East 439 505 27,000  Level Cleveland Center
11:00PM 42.3644 -80.5494 65° Northeast 439 505 27,000 -240 Level Cleveland Center
11:01PM 42.4183 -80.3806 67° East 439 505 26,600 -1,200 Descending Cleveland Center
11:02PM 42.4658 -80.2369 66° East 428 493 24,600 -2,100 Descending Cleveland Center
11:03PM 42.5114 -80.0958 66° East 418 481 22,400 -1,800 Descending Cleveland Center
11:04PM 42.5464 -79.9942 65° Northeast 389 448 21,000 -1,800 Descending Cleveland Center
11:05PM 42.5933 -79.8528 66° East 377 434 18,800 -2,100 Descending Cleveland Center
11:06PM 42.6300 -79.7339 67° East 361 415 16,900 -2,160 Descending Cleveland Center
11:07PM 42.6686 -79.6089 67° East 355 409 14,500 -2,400 Descending Cleveland Center
11:08PM 42.7053 -79.4897 67° East 348 400 12,100 -2,280 Descending Cleveland Center
11:09PM 42.7456 -79.3592 67° East 343 395 10,000 -1,500 Descending Cleveland Center
11:10PM 42.7797 -79.2567 66° East 316 364 9,100 -1,200 Descending Cleveland Center
11:11PM 42.8058 -79.1711 67° East 278 320 7,600 -1,560 Descending Cleveland Center
11:12PM 42.8358 -79.0742 67° East 278 320 6,000 -1,260 Descending Cleveland Center
11:13PM 42.8700 -78.9686 66° East 278 320 5,100 -540 Descending Cleveland Center
11:14PM 42.9253 -78.8961 44° Northeast 278 320 5,000 -120 Descending Cleveland Center
11:14PM 42.9333 -78.8667 70° East 265 305 5,000  Level Buffalo TRACON
11:15PM 43.0000 -78.8167 29° Northeast 232 267 5,000 -480 Level Buffalo TRACON
11:16PM 43.0333 -78.7667 48° Northeast 164 189 4,100 -1,260 Descending Buffalo TRACON
11:17PM 43.0167 -78.7167 114° Southeast 127 146 2,500 -1,320 Descending Buffalo TRACON
11:18PM 42.9833 -78.6833 144° Southeast 114 131 1,700 -780 Descending Buffalo TRACON
11:19PM 42.9667 -78.7000 216° Southwest 125 144 1,100 -600 Descending Buffalo TRACON